sensor_id;sensor_type;location;lat;lon;timestamp;temperature;humidity
13600;DHT22;6871;51.34740610;4.31323160;2024-01-15T00:00:36;12.00;83.30
13600;DHT22;6871;51.34740610;4.31323160;2024-01-15T00:03:06;12.00;83.40
13600;DHT22;6871;51.34740610;4.31323160;2024-01-15T00:05:35;12.00;83.70
13600;DHT22;6871;51.34740610;4.31323160;2024-01-15T00:08:04;12.00;83.80
13600;DHT22;6871;51.34740610;4.31323160;2024-01-15T00:10:35;12.00;84.00
13600;DHT22;6871;51.34740610;4.31323160;2024-01-15T00:13:04;12.00;84.10
13600;DHT22;6871;51.34740610;4.31323160;2024-01-15T00:15:33;12.00;83.80
13600;DHT22;6871;51.34740610;4.31323160;2024-01-15T00:18:03;12.00;83.80
13600;DHT22;6871;51.34740610;4.31323160;2024-01-15T00:20:32;12.00;83.80
13600;DHT22;6871;51.34740610;4.31323160;2024-01-15T00:23:02;12.00;84.00
13600;DHT22;6871;51.34740610;4.31323160;2024-01-15T00:25:31;12.00;83.90
13600;DHT22;6871;51.34740610;4.31323160;2024-01-15T00:28:00;12.00;84.00
13600;DHT22;6871;51.34740610;4.31323160;2024-01-15T00:30:29;12.00;84.20
13600;DHT22;6871;51.34740610;4.31323160;2024-01-15T00:32:59;12.00;84.10
13600;DHT22;6871;51.34740610;4.31323160;2024-01-15T00:35:28;12.00;85.00
13600;DHT22;6871;51.34740610;4.31323160;2024-01-15T00:37:57;12.00;84.20
13600;DHT22;6871;51.34740610;4.31323160;2024-01-15T00:40:27;11.90;84.30
13600;DHT22;6871;51.34740610;4.31323160;2024-01-15T00:42:56;11.90;84.40
13600;DHT22;6871;51.34740610;4.31323160;2024-01-15T00:45:25;11.90;84.20
13600;DHT22;6871;51.34740610;4.31323160;2024-01-15T00:47:55;11.90;83.80
13600;DHT22;6871;51.34740610;4.31323160;2024-01-15T00:50:26;11.90;83.80
13600;DHT22;6871;51.34740610;4.31323160;2024-01-15T00:52:57;11.90;83.90
13600;DHT22;6871;51.34740610;4.31323160;2024-01-15T00:55:26;11.90;84.00
13600;DHT22;6871;51.34740610;4.31323160;2024-01-15T00:57:56;11.90;84.10
13600;DHT22;6871;51.34740610;4.31323160;2024-01-15T01:00:25;11.90;84.20
13600;DHT22;6871;51.34740610;4.31323160;2024-01-15T01:02:55;11.90;84.10
13600;DHT22;6871;51.34740610;4.31323160;2024-01-15T01:05:24;11.90;84.10
13600;DHT22;6871;51.34740610;4.31323160;2024-01-15T01:07:53;11.90;85.10
13600;DHT22;6871;51.34740610;4.31323160;2024-01-15T01:10:22;11.90;84.40
13600;DHT22;6871;51.34740610;4.31323160;2024-01-15T01:12:52;11.90;84.50
13600;DHT22;6871;51.34740610;4.31323160;2024-01-15T01:15:21;11.90;84.60
13600;DHT22;6871;51.34740610;4.31323160;2024-01-15T01:17:50;11.90;84.50
13600;DHT22;6871;51.34740610;4.31323160;2024-01-15T01:20:20;11.90;84.80
13600;DHT22;6871;51.34740610;4.31323160;2024-01-15T01:22:49;11.90;84.70
13600;DHT22;6871;51.34740610;4.31323160;2024-01-15T01:25:19;11.90;84.70
13600;DHT22;6871;51.34740610;4.31323160;2024-01-15T01:27:48;11.90;85.10
13600;DHT22;6871;51.34740610;4.31323160;2024-01-15T01:30:17;11.80;84.60
13600;DHT22;6871;51.34740610;4.31323160;2024-01-15T01:32:46;11.90;84.70
13600;DHT22;6871;51.34740610;4.31323160;2024-01-15T01:35:16;11.90;84.60
13600;DHT22;6871;51.34740610;4.31323160;2024-01-15T01:37:45;11.80;84.50
13600;DHT22;6871;51.34740610;4.31323160;2024-01-15T01:40:14;11.80;84.50
13600;DHT22;6871;51.34740610;4.31323160;2024-01-15T01:42:44;11.80;84.70
13600;DHT22;6871;51.34740610;4.31323160;2024-01-15T01:45:13;11.80;84.80
13600;DHT22;6871;51.34740610;4.31323160;2024-01-15T01:47:42;11.80;84.80
13600;DHT22;6871;51.34740610;4.31323160;2024-01-15T01:50:12;11.80;84.80
13600;DHT22;6871;51.34740610;4.31323160;2024-01-15T01:52:42;11.80;85.00
13600;DHT22;6871;51.34740610;4.31323160;2024-01-15T01:55:12;11.80;85.00
13600;DHT22;6871;51.34740610;4.31323160;2024-01-15T01:57:43;11.80;85.00
13600;DHT22;6871;51.34740610;4.31323160;2024-01-15T02:00:14;11.80;85.00
13600;DHT22;6871;51.34740610;4.31323160;2024-01-15T02:02:44;11.80;85.00
13600;DHT22;6871;51.34740610;4.31323160;2024-01-15T02:05:15;11.80;85.00
13600;DHT22;6871;51.34740610;4.31323160;2024-01-15T02:07:45;11.80;85.00
13600;DHT22;6871;51.34740610;4.31323160;2024-01-15T02:10:15;11.80;85.10
13600;DHT22;6871;51.34740610;4.31323160;2024-01-15T02:12:44;11.80;85.10
13600;DHT22;6871;51.34740610;4.31323160;2024-01-15T02:15:16;11.80;85.20
13600;DHT22;6871;51.34740610;4.31323160;2024-01-15T02:18:01;11.80;85.10
13600;DHT22;6871;51.34740610;4.31323160;2024-01-15T02:20:31;11.80;85.00
13600;DHT22;6871;51.34740610;4.31323160;2024-01-15T02:23:10;11.80;85.00
13600;DHT22;6871;51.34740610;4.31323160;2024-01-15T02:25:41;11.80;85.10
13600;DHT22;6871;51.34740610;4.31323160;2024-01-15T02:28:12;11.80;85.10
13600;DHT22;6871;51.34740610;4.31323160;2024-01-15T02:30:42;11.80;84.90
13600;DHT22;6871;51.34740610;4.31323160;2024-01-15T02:33:12;11.70;84.90
13600;DHT22;6871;51.34740610;4.31323160;2024-01-15T02:35:41;11.70;84.90
13600;DHT22;6871;51.34740610;4.31323160;2024-01-15T02:38:10;11.70;84.90
13600;DHT22;6871;51.34740610;4.31323160;2024-01-15T02:40:40;11.70;84.90
13600;DHT22;6871;51.34740610;4.31323160;2024-01-15T02:43:10;11.70;84.90
13600;DHT22;6871;51.34740610;4.31323160;2024-01-15T02:45:40;11.70;84.90
13600;DHT22;6871;51.34740610;4.31323160;2024-01-15T02:48:09;11.70;84.80
13600;DHT22;6871;51.34740610;4.31323160;2024-01-15T02:50:38;11.70;85.50
13600;DHT22;6871;51.34740610;4.31323160;2024-01-15T02:53:07;11.70;84.80
13600;DHT22;6871;51.34740610;4.31323160;2024-01-15T02:55:37;11.70;84.80
13600;DHT22;6871;51.34740610;4.31323160;2024-01-15T02:58:06;11.70;84.70
13600;DHT22;6871;51.34740610;4.31323160;2024-01-15T03:00:36;11.70;84.80
13600;DHT22;6871;51.34740610;4.31323160;2024-01-15T03:03:05;11.70;84.80
13600;DHT22;6871;51.34740610;4.31323160;2024-01-15T03:05:34;11.70;84.90
13600;DHT22;6871;51.34740610;4.31323160;2024-01-15T03:08:04;11.70;84.90
13600;DHT22;6871;51.34740610;4.31323160;2024-01-15T03:10:33;11.70;84.90
13600;DHT22;6871;51.34740610;4.31323160;2024-01-15T03:13:03;11.70;85.00
13600;DHT22;6871;51.34740610;4.31323160;2024-01-15T03:15:32;11.70;85.10
13600;DHT22;6871;51.34740610;4.31323160;2024-01-15T03:18:01;11.70;85.00
13600;DHT22;6871;51.34740610;4.31323160;2024-01-15T03:20:31;11.70;85.00
13600;DHT22;6871;51.34740610;4.31323160;2024-01-15T03:23:00;11.70;85.10
13600;DHT22;6871;51.34740610;4.31323160;2024-01-15T03:25:30;11.70;85.00
13600;DHT22;6871;51.34740610;4.31323160;2024-01-15T03:27:59;11.70;85.20
13600;DHT22;6871;51.34740610;4.31323160;2024-01-15T03:30:28;11.70;85.10
13600;DHT22;6871;51.34740610;4.31323160;2024-01-15T03:32:58;11.70;85.10
13600;DHT22;6871;51.34740610;4.31323160;2024-01-15T03:35:27;11.70;85.00
13600;DHT22;6871;51.34740610;4.31323160;2024-01-15T03:37:58;11.70;85.10
13600;DHT22;6871;51.34740610;4.31323160;2024-01-15T03:40:27;11.70;85.10
13600;DHT22;6871;51.34740610;4.31323160;2024-01-15T03:42:57;11.70;85.00
13600;DHT22;6871;51.34740610;4.31323160;2024-01-15T03:45:26;11.70;85.00
13600;DHT22;6871;51.34740610;4.31323160;2024-01-15T03:47:55;11.70;85.00
13600;DHT22;6871;51.34740610;4.31323160;2024-01-15T03:50:25;11.70;84.90
13600;DHT22;6871;51.34740610;4.31323160;2024-01-15T03:52:54;11.70;85.00
13600;DHT22;6871;51.34740610;4.31323160;2024-01-15T03:55:23;11.70;84.90
13600;DHT22;6871;51.34740610;4.31323160;2024-01-15T03:57:52;11.70;85.00
13600;DHT22;6871;51.34740610;4.31323160;2024-01-15T04:00:22;11.70;85.00
13600;DHT22;6871;51.34740610;4.31323160;2024-01-15T04:02:52;11.70;85.00
13600;DHT22;6871;51.34740610;4.31323160;2024-01-15T04:05:21;11.70;84.90
13600;DHT22;6871;51.34740610;4.31323160;2024-01-15T04:07:51;11.70;84.90
13600;DHT22;6871;51.34740610;4.31323160;2024-01-15T04:10:20;11.70;84.80
13600;DHT22;6871;51.34740610;4.31323160;2024-01-15T04:12:49;11.60;84.80
13600;DHT22;6871;51.34740610;4.31323160;2024-01-15T04:15:18;11.60;84.70
13600;DHT22;6871;51.34740610;4.31323160;2024-01-15T04:17:48;11.70;84.80
13600;DHT22;6871;51.34740610;4.31323160;2024-01-15T04:20:17;11.60;84.80
13600;DHT22;6871;51.34740610;4.31323160;2024-01-15T04:22:46;11.60;84.70
13600;DHT22;6871;51.34740610;4.31323160;2024-01-15T04:25:16;11.70;84.70
13600;DHT22;6871;51.34740610;4.31323160;2024-01-15T04:27:45;11.60;84.60
13600;DHT22;6871;51.34740610;4.31323160;2024-01-15T04:30:15;11.60;84.60
13600;DHT22;6871;51.34740610;4.31323160;2024-01-15T04:32:44;11.60;84.60
13600;DHT22;6871;51.34740610;4.31323160;2024-01-15T04:35:13;11.60;84.70
13600;DHT22;6871;51.34740610;4.31323160;2024-01-15T04:37:43;11.60;84.60
13600;DHT22;6871;51.34740610;4.31323160;2024-01-15T04:40:13;11.60;84.50
13600;DHT22;6871;51.34740610;4.31323160;2024-01-15T04:42:43;11.60;84.50
13600;DHT22;6871;51.34740610;4.31323160;2024-01-15T04:45:13;11.60;84.40
13600;DHT22;6871;51.34740610;4.31323160;2024-01-15T04:47:43;11.60;84.40
13600;DHT22;6871;51.34740610;4.31323160;2024-01-15T04:50:12;11.60;84.30
13600;DHT22;6871;51.34740610;4.31323160;2024-01-15T04:52:41;11.60;84.30
13600;DHT22;6871;51.34740610;4.31323160;2024-01-15T04:55:10;11.60;84.40
13600;DHT22;6871;51.34740610;4.31323160;2024-01-15T04:57:40;11.60;84.50
13600;DHT22;6871;51.34740610;4.31323160;2024-01-15T05:00:11;11.60;84.40
13600;DHT22;6871;51.34740610;4.31323160;2024-01-15T05:02:40;11.60;84.50
13600;DHT22;6871;51.34740610;4.31323160;2024-01-15T05:05:10;11.60;84.40
13600;DHT22;6871;51.34740610;4.31323160;2024-01-15T05:07:39;11.60;84.40
13600;DHT22;6871;51.34740610;4.31323160;2024-01-15T05:10:09;11.60;84.40
13600;DHT22;6871;51.34740610;4.31323160;2024-01-15T05:12:40;11.60;84.50
13600;DHT22;6871;51.34740610;4.31323160;2024-01-15T05:15:10;11.60;84.50
13600;DHT22;6871;51.34740610;4.31323160;2024-01-15T05:17:39;11.60;84.40
13600;DHT22;6871;51.34740610;4.31323160;2024-01-15T05:20:10;11.60;84.40
13600;DHT22;6871;51.34740610;4.31323160;2024-01-15T05:22:40;11.60;84.50
13600;DHT22;6871;51.34740610;4.31323160;2024-01-15T05:25:09;11.60;84.60
13600;DHT22;6871;51.34740610;4.31323160;2024-01-15T05:27:38;11.60;84.60
13600;DHT22;6871;51.34740610;4.31323160;2024-01-15T05:30:09;11.60;84.70
13600;DHT22;6871;51.34740610;4.31323160;2024-01-15T05:32:38;11.60;84.80
13600;DHT22;6871;51.34740610;4.31323160;2024-01-15T05:35:08;11.60;84.80
13600;DHT22;6871;51.34740610;4.31323160;2024-01-15T05:37:38;11.60;84.90
13600;DHT22;6871;51.34740610;4.31323160;2024-01-15T05:40:09;11.60;85.00
13600;DHT22;6871;51.34740610;4.31323160;2024-01-15T05:42:41;11.60;84.90
13600;DHT22;6871;51.34740610;4.31323160;2024-01-15T05:45:10;11.60;84.90
13600;DHT22;6871;51.34740610;4.31323160;2024-01-15T05:47:39;11.60;84.90
13600;DHT22;6871;51.34740610;4.31323160;2024-01-15T05:50:09;11.60;85.00
13600;DHT22;6871;51.34740610;4.31323160;2024-01-15T05:52:39;11.60;84.90
13600;DHT22;6871;51.34740610;4.31323160;2024-01-15T05:55:09;11.50;84.70
13600;DHT22;6871;51.34740610;4.31323160;2024-01-15T05:57:38;11.50;84.40
13600;DHT22;6871;51.34740610;4.31323160;2024-01-15T06:00:10;11.50;84.20
13600;DHT22;6871;51.34740610;4.31323160;2024-01-15T06:02:40;11.50;84.10
13600;DHT22;6871;51.34740610;4.31323160;2024-01-15T06:05:09;11.50;83.90
13600;DHT22;6871;51.34740610;4.31323160;2024-01-15T06:07:38;11.50;84.00
13600;DHT22;6871;51.34740610;4.31323160;2024-01-15T06:10:09;11.50;83.90
13600;DHT22;6871;51.34740610;4.31323160;2024-01-15T06:12:38;11.50;83.80
13600;DHT22;6871;51.34740610;4.31323160;2024-01-15T06:15:08;11.50;83.60
13600;DHT22;6871;51.34740610;4.31323160;2024-01-15T06:17:37;11.50;83.50
13600;DHT22;6871;51.34740610;4.31323160;2024-01-15T06:20:09;11.50;83.50
13600;DHT22;6871;51.34740610;4.31323160;2024-01-15T06:22:38;11.50;83.40
13600;DHT22;6871;51.34740610;4.31323160;2024-01-15T06:25:08;11.60;83.60
13600;DHT22;6871;51.34740610;4.31323160;2024-01-15T06:27:38;11.60;83.40
13600;DHT22;6871;51.34740610;4.31323160;2024-01-15T06:30:09;11.60;83.00
13600;DHT22;6871;51.34740610;4.31323160;2024-01-15T06:32:38;11.60;82.90
13600;DHT22;6871;51.34740610;4.31323160;2024-01-15T06:35:08;11.60;82.80
13600;DHT22;6871;51.34740610;4.31323160;2024-01-15T06:37:39;11.70;82.80
13600;DHT22;6871;51.34740610;4.31323160;2024-01-15T06:40:10;11.70;82.70
13600;DHT22;6871;51.34740610;4.31323160;2024-01-15T06:42:39;11.80;82.80
13600;DHT22;6871;51.34740610;4.31323160;2024-01-15T06:45:10;11.80;82.80
13600;DHT22;6871;51.34740610;4.31323160;2024-01-15T06:47:39;11.90;84.00
13600;DHT22;6871;51.34740610;4.31323160;2024-01-15T06:50:10;11.90;82.50
13600;DHT22;6871;51.34740610;4.31323160;2024-01-15T06:52:39;11.90;82.30
13600;DHT22;6871;51.34740610;4.31323160;2024-01-15T06:55:09;11.90;82.10
13600;DHT22;6871;51.34740610;4.31323160;2024-01-15T06:57:40;12.00;82.10
13600;DHT22;6871;51.34740610;4.31323160;2024-01-15T07:00:12;12.00;81.70
13600;DHT22;6871;51.34740610;4.31323160;2024-01-15T07:02:41;12.10;81.90
13600;DHT22;6871;51.34740610;4.31323160;2024-01-15T07:05:11;12.10;81.90
13600;DHT22;6871;51.34740610;4.31323160;2024-01-15T07:07:40;12.10;81.90
13600;DHT22;6871;51.34740610;4.31323160;2024-01-15T07:10:09;12.20;82.00
13600;DHT22;6871;51.34740610;4.31323160;2024-01-15T07:12:39;12.20;82.10
13600;DHT22;6871;51.34740610;4.31323160;2024-01-15T07:15:10;12.30;82.00
13600;DHT22;6871;51.34740610;4.31323160;2024-01-15T07:17:39;12.30;81.90
13600;DHT22;6871;51.34740610;4.31323160;2024-01-15T07:20:11;12.30;81.90
13600;DHT22;6871;51.34740610;4.31323160;2024-01-15T07:22:41;12.30;81.90
13600;DHT22;6871;51.34740610;4.31323160;2024-01-15T07:25:10;12.40;81.80
13600;DHT22;6871;51.34740610;4.31323160;2024-01-15T07:27:42;12.40;81.80
13600;DHT22;6871;51.34740610;4.31323160;2024-01-15T07:30:13;12.40;81.80
13600;DHT22;6871;51.34740610;4.31323160;2024-01-15T07:32:42;12.40;81.80
13600;DHT22;6871;51.34740610;4.31323160;2024-01-15T07:35:12;12.40;81.90
13600;DHT22;6871;51.34740610;4.31323160;2024-01-15T07:37:41;12.40;81.90
13600;DHT22;6871;51.34740610;4.31323160;2024-01-15T07:40:11;12.40;80.70
13600;DHT22;6871;51.34740610;4.31323160;2024-01-15T07:42:41;12.30;81.10
13600;DHT22;6871;51.34740610;4.31323160;2024-01-15T07:45:11;12.30;81.00
13600;DHT22;6871;51.34740610;4.31323160;2024-01-15T07:47:40;12.30;81.00
13600;DHT22;6871;51.34740610;4.31323160;2024-01-15T07:50:10;12.30;81.10
13600;DHT22;6871;51.34740610;4.31323160;2024-01-15T07:52:40;12.30;80.90
13600;DHT22;6871;51.34740610;4.31323160;2024-01-15T07:55:10;12.40;80.90
13600;DHT22;6871;51.34740610;4.31323160;2024-01-15T07:57:39;12.40;80.70
13600;DHT22;6871;51.34740610;4.31323160;2024-01-15T08:00:10;12.40;80.70
13600;DHT22;6871;51.34740610;4.31323160;2024-01-15T08:02:40;12.40;80.70
13600;DHT22;6871;51.34740610;4.31323160;2024-01-15T08:05:09;12.50;80.30
13600;DHT22;6871;51.34740610;4.31323160;2024-01-15T08:07:38;12.50;80.50
13600;DHT22;6871;51.34740610;4.31323160;2024-01-15T08:10:09;12.50;81.30
13600;DHT22;6871;51.34740610;4.31323160;2024-01-15T08:12:38;12.50;80.40
13600;DHT22;6871;51.34740610;4.31323160;2024-01-15T08:15:08;12.50;80.30
13600;DHT22;6871;51.34740610;4.31323160;2024-01-15T08:17:37;12.50;80.50
13600;DHT22;6871;51.34740610;4.31323160;2024-01-15T08:20:08;12.50;80.30
13600;DHT22;6871;51.34740610;4.31323160;2024-01-15T08:22:39;12.50;80.20
13600;DHT22;6871;51.34740610;4.31323160;2024-01-15T08:25:09;12.50;80.20
13600;DHT22;6871;51.34740610;4.31323160;2024-01-15T08:27:39;12.50;80.20
13600;DHT22;6871;51.34740610;4.31323160;2024-01-15T08:30:11;12.50;80.20
13600;DHT22;6871;51.34740610;4.31323160;2024-01-15T08:32:40;12.60;80.20
13600;DHT22;6871;51.34740610;4.31323160;2024-01-15T08:35:10;12.50;80.20
13600;DHT22;6871;51.34740610;4.31323160;2024-01-15T08:37:40;12.60;80.00
13600;DHT22;6871;51.34740610;4.31323160;2024-01-15T08:40:11;12.60;79.60
13600;DHT22;6871;51.34740610;4.31323160;2024-01-15T08:42:41;12.60;79.50
13600;DHT22;6871;51.34740610;4.31323160;2024-01-15T08:45:10;12.60;79.80
13600;DHT22;6871;51.34740610;4.31323160;2024-01-15T08:47:40;12.60;80.60
13600;DHT22;6871;51.34740610;4.31323160;2024-01-15T08:50:09;12.60;79.70
13600;DHT22;6871;51.34740610;4.31323160;2024-01-15T08:52:38;12.60;79.80
13600;DHT22;6871;51.34740610;4.31323160;2024-01-15T08:55:08;12.60;79.60
13600;DHT22;6871;51.34740610;4.31323160;2024-01-15T08:57:37;12.60;79.70
13600;DHT22;6871;51.34740610;4.31323160;2024-01-15T09:00:09;12.70;79.90
13600;DHT22;6871;51.34740610;4.31323160;2024-01-15T09:02:39;12.70;79.80
13600;DHT22;6871;51.34740610;4.31323160;2024-01-15T09:05:09;12.70;80.30
13600;DHT22;6871;51.34740610;4.31323160;2024-01-15T09:07:38;12.70;80.60
13600;DHT22;6871;51.34740610;4.31323160;2024-01-15T09:10:09;12.70;80.50
13600;DHT22;6871;51.34740610;4.31323160;2024-01-15T09:12:38;12.80;80.30
13600;DHT22;6871;51.34740610;4.31323160;2024-01-15T09:15:08;12.80;80.40
13600;DHT22;6871;51.34740610;4.31323160;2024-01-15T09:17:37;12.80;80.30
13600;DHT22;6871;51.34740610;4.31323160;2024-01-15T09:20:11;12.90;80.10
13600;DHT22;6871;51.34740610;4.31323160;2024-01-15T09:22:39;12.90;80.30
13600;DHT22;6871;51.34740610;4.31323160;2024-01-15T09:25:09;13.00;80.10
13600;DHT22;6871;51.34740610;4.31323160;2024-01-15T09:27:39;13.00;80.30
13600;DHT22;6871;51.34740610;4.31323160;2024-01-15T09:30:10;13.00;79.90
13600;DHT22;6871;51.34740610;4.31323160;2024-01-15T09:32:39;13.00;80.10
13600;DHT22;6871;51.34740610;4.31323160;2024-01-15T09:35:09;13.10;80.10
13600;DHT22;6871;51.34740610;4.31323160;2024-01-15T09:37:40;13.10;80.40
13600;DHT22;6871;51.34740610;4.31323160;2024-01-15T09:40:13;13.20;79.70
13600;DHT22;6871;51.34740610;4.31323160;2024-01-15T09:42:43;13.20;79.90
13600;DHT22;6871;51.34740610;4.31323160;2024-01-15T09:45:13;13.30;79.50
13600;DHT22;6871;51.34740610;4.31323160;2024-01-15T09:47:42;13.30;79.20
13600;DHT22;6871;51.34740610;4.31323160;2024-01-15T09:50:12;13.30;78.90
13600;DHT22;6871;51.34740610;4.31323160;2024-01-15T09:52:43;13.40;78.60
13600;DHT22;6871;51.34740610;4.31323160;2024-01-15T09:55:14;13.40;78.50
13600;DHT22;6871;51.34740610;4.31323160;2024-01-15T09:57:45;13.40;78.40
13600;DHT22;6871;51.34740610;4.31323160;2024-01-15T10:00:18;13.30;78.40
13600;DHT22;6871;51.34740610;4.31323160;2024-01-15T10:02:49;13.30;78.40
13600;DHT22;6871;51.34740610;4.31323160;2024-01-15T10:05:18;13.20;78.40
13600;DHT22;6871;51.34740610;4.31323160;2024-01-15T10:07:48;13.20;78.70
13600;DHT22;6871;51.34740610;4.31323160;2024-01-15T10:10:19;13.20;78.70
13600;DHT22;6871;51.34740610;4.31323160;2024-01-15T10:12:50;13.10;79.10
13600;DHT22;6871;51.34740610;4.31323160;2024-01-15T10:15:22;13.10;79.40
13600;DHT22;6871;51.34740610;4.31323160;2024-01-15T10:17:52;13.10;79.80
13600;DHT22;6871;51.34740610;4.31323160;2024-01-15T10:20:21;13.00;79.90
13600;DHT22;6871;51.34740610;4.31323160;2024-01-15T10:22:51;13.00;80.10
13600;DHT22;6871;51.34740610;4.31323160;2024-01-15T10:28:02;12.90;81.10
13600;DHT22;6871;51.34740610;4.31323160;2024-01-15T10:30:32;12.90;81.00
13600;DHT22;6871;51.34740610;4.31323160;2024-01-15T10:33:03;12.80;81.30
13600;DHT22;6871;51.34740610;4.31323160;2024-01-15T10:35:34;12.80;81.30
13600;DHT22;6871;51.34740610;4.31323160;2024-01-15T10:38:05;12.80;81.20
13600;DHT22;6871;51.34740610;4.31323160;2024-01-15T10:40:35;12.70;81.00
13600;DHT22;6871;51.34740610;4.31323160;2024-01-15T10:43:05;12.70;80.60
13600;DHT22;6871;51.34740610;4.31323160;2024-01-15T10:45:34;12.70;80.50
13600;DHT22;6871;51.34740610;4.31323160;2024-01-15T10:48:05;12.60;80.70
13600;DHT22;6871;51.34740610;4.31323160;2024-01-15T10:50:34;12.60;80.40
13600;DHT22;6871;51.34740610;4.31323160;2024-01-15T10:53:04;12.60;80.60
13600;DHT22;6871;51.34740610;4.31323160;2024-01-15T10:55:34;12.60;81.00
13600;DHT22;6871;51.34740610;4.31323160;2024-01-15T10:58:04;12.50;80.90
13600;DHT22;6871;51.34740610;4.31323160;2024-01-15T11:00:35;12.50;81.10
13600;DHT22;6871;51.34740610;4.31323160;2024-01-15T11:03:08;12.60;81.00
13600;DHT22;6871;51.34740610;4.31323160;2024-01-15T11:05:39;12.50;80.80
13600;DHT22;6871;51.34740610;4.31323160;2024-01-15T11:08:09;12.50;81.40
13600;DHT22;6871;51.34740610;4.31323160;2024-01-15T11:10:43;12.50;81.00
13600;DHT22;6871;51.34740610;4.31323160;2024-01-15T11:13:20;12.50;81.00
13600;DHT22;6871;51.34740610;4.31323160;2024-01-15T11:16:02;12.50;81.30
13600;DHT22;6871;51.34740610;4.31323160;2024-01-15T11:18:34;12.40;81.00
13600;DHT22;6871;51.34740610;4.31323160;2024-01-15T11:24:32;12.40;80.90
13600;DHT22;6871;51.34740610;4.31323160;2024-01-15T11:27:01;12.40;81.30
13600;DHT22;6871;51.34740610;4.31323160;2024-01-15T11:29:32;12.40;80.50
13600;DHT22;6871;51.34740610;4.31323160;2024-01-15T11:32:04;12.30;80.10
13600;DHT22;6871;51.34740610;4.31323160;2024-01-15T11:34:52;12.30;80.30
13600;DHT22;6871;51.34740610;4.31323160;2024-01-15T11:37:22;12.30;80.20
13600;DHT22;6871;51.34740610;4.31323160;2024-01-15T11:39:54;12.30;80.00
13600;DHT22;6871;51.34740610;4.31323160;2024-01-15T11:42:23;12.30;80.30
13600;DHT22;6871;51.34740610;4.31323160;2024-01-15T11:44:53;12.30;80.90
13600;DHT22;6871;51.34740610;4.31323160;2024-01-15T11:48:00;12.30;81.10
13600;DHT22;6871;51.34740610;4.31323160;2024-01-15T11:50:30;12.30;81.10
13600;DHT22;6871;51.34740610;4.31323160;2024-01-15T11:53:02;12.30;80.60
13600;DHT22;6871;51.34740610;4.31323160;2024-01-15T11:55:34;12.20;81.20
13600;DHT22;6871;51.34740610;4.31323160;2024-01-15T11:58:07;12.20;81.30
13600;DHT22;6871;51.34740610;4.31323160;2024-01-15T12:00:40;12.20;80.90
13600;DHT22;6871;51.34740610;4.31323160;2024-01-15T12:03:10;12.20;80.90
13600;DHT22;6871;51.34740610;4.31323160;2024-01-15T12:05:40;12.20;80.70
13600;DHT22;6871;51.34740610;4.31323160;2024-01-15T12:08:10;12.20;80.70
13600;DHT22;6871;51.34740610;4.31323160;2024-01-15T12:10:40;12.20;80.70
13600;DHT22;6871;51.34740610;4.31323160;2024-01-15T12:13:12;12.20;80.50
13600;DHT22;6871;51.34740610;4.31323160;2024-01-15T12:15:43;12.20;80.50
13600;DHT22;6871;51.34740610;4.31323160;2024-01-15T12:18:14;12.20;80.90
13600;DHT22;6871;51.34740610;4.31323160;2024-01-15T12:20:44;12.20;80.80
13600;DHT22;6871;51.34740610;4.31323160;2024-01-15T12:23:16;12.10;80.50
13600;DHT22;6871;51.34740610;4.31323160;2024-01-15T12:25:45;12.10;80.60
13600;DHT22;6871;51.34740610;4.31323160;2024-01-15T12:28:15;12.10;81.20
13600;DHT22;6871;51.34740610;4.31323160;2024-01-15T12:30:47;12.10;81.20
13600;DHT22;6871;51.34740610;4.31323160;2024-01-15T12:33:18;12.10;80.70
13600;DHT22;6871;51.34740610;4.31323160;2024-01-15T12:35:48;12.10;80.30
13600;DHT22;6871;51.34740610;4.31323160;2024-01-15T12:38:20;12.00;80.30
13600;DHT22;6871;51.34740610;4.31323160;2024-01-15T12:40:50;12.00;80.40
13600;DHT22;6871;51.34740610;4.31323160;2024-01-15T12:43:19;12.00;80.50
13600;DHT22;6871;51.34740610;4.31323160;2024-01-15T12:45:48;12.00;80.40
13600;DHT22;6871;51.34740610;4.31323160;2024-01-15T12:48:18;12.00;80.40
13600;DHT22;6871;51.34740610;4.31323160;2024-01-15T12:50:47;12.00;80.40
13600;DHT22;6871;51.34740610;4.31323160;2024-01-15T12:53:17;12.00;80.40
13600;DHT22;6871;51.34740610;4.31323160;2024-01-15T12:55:46;12.00;80.40
13600;DHT22;6871;51.34740610;4.31323160;2024-01-15T12:58:15;12.00;80.60
13600;DHT22;6871;51.34740610;4.31323160;2024-01-15T13:00:45;12.00;80.90
13600;DHT22;6871;51.34740610;4.31323160;2024-01-15T13:03:15;12.00;81.40
13600;DHT22;6871;51.34740610;4.31323160;2024-01-15T13:05:44;12.00;81.90
13600;DHT22;6871;51.34740610;4.31323160;2024-01-15T13:08:14;12.00;81.50
13600;DHT22;6871;51.34740610;4.31323160;2024-01-15T13:10:43;11.90;83.70
13600;DHT22;6871;51.34740610;4.31323160;2024-01-15T13:13:13;12.00;82.60
13600;DHT22;6871;51.34740610;4.31323160;2024-01-15T13:15:42;12.00;81.60
13600;DHT22;6871;51.34740610;4.31323160;2024-01-15T13:18:14;12.00;81.30
13600;DHT22;6871;51.34740610;4.31323160;2024-01-15T13:20:45;12.00;81.30
13600;DHT22;6871;51.34740610;4.31323160;2024-01-15T13:23:14;12.00;81.60
13600;DHT22;6871;51.34740610;4.31323160;2024-01-15T13:25:44;12.00;81.50
13600;DHT22;6871;51.34740610;4.31323160;2024-01-15T13:28:13;12.00;81.50
13600;DHT22;6871;51.34740610;4.31323160;2024-01-15T13:30:43;12.00;81.40
13600;DHT22;6871;51.34740610;4.31323160;2024-01-15T13:33:12;12.00;81.40
13600;DHT22;6871;51.34740610;4.31323160;2024-01-15T13:35:41;12.00;81.50
13600;DHT22;6871;51.34740610;4.31323160;2024-01-15T13:38:11;12.10;81.60
13600;DHT22;6871;51.34740610;4.31323160;2024-01-15T13:40:40;12.00;81.40
13600;DHT22;6871;51.34740610;4.31323160;2024-01-15T13:43:09;12.00;81.50
13600;DHT22;6871;51.34740610;4.31323160;2024-01-15T13:45:39;12.00;81.40
13600;DHT22;6871;51.34740610;4.31323160;2024-01-15T13:48:08;12.00;81.10
13600;DHT22;6871;51.34740610;4.31323160;2024-01-15T13:50:38;12.00;81.10
13600;DHT22;6871;51.34740610;4.31323160;2024-01-15T13:53:07;12.00;81.20
13600;DHT22;6871;51.34740610;4.31323160;2024-01-15T13:55:37;12.00;81.30